Terminal Aerodrome Forecast
Issued by NWS Louisville, KY

Home | Current Version | Previous Version | Text Only | Print | Product List | Glossary On
Versions: 1 2 3 4 5 6 7 8 9 10 11 12 13 14 15
000
FTUS43 KLMK 280527
TAFLEX
TAF
KLEX 280527Z 2806/2906 VRB03KT P6SM SCT250
     FM281400 16009G17KT P6SM BKN200
     FM282200 17011G20KT P6SM SCT060 BKN150 PROB30 2822/2824 -TSRA
      BKN040CB=

USA.gov is the U.S. government's official web portal to all federal, state and local government web resources and services.